createdAt,value
2023-02-19T00:00:35.301Z,13.1
2023-02-19T00:02:39.201Z,15.2
2023-02-19T00:04:43.090Z,16.8
2023-02-19T00:06:49.746Z,14.7
2023-02-19T00:08:53.609Z,11.9
2023-02-19T00:10:57.467Z,14.1
2023-02-19T00:13:01.349Z,12.9
2023-02-19T00:15:05.192Z,12.2
2023-02-19T00:17:09.061Z,13.6
2023-02-19T00:19:12.946Z,14.5
2023-02-19T00:23:23.537Z,13.8
2023-02-19T00:25:27.420Z,13.5
2023-02-19T00:26:30.745Z,13.3
2023-02-19T00:28:34.616Z,10.1
2023-02-19T00:30:38.466Z,11.7
2023-02-19T00:32:42.354Z,12.4
2023-02-19T00:34:49.020Z,13.3
2023-02-19T00:36:52.916Z,12.3
2023-02-19T00:38:56.759Z,12.2
2023-02-19T00:41:00.641Z,11.8
2023-02-19T00:43:04.517Z,10.9
2023-02-19T00:45:08.404Z,11.5
2023-02-19T00:47:12.251Z,8.6
2023-02-19T00:51:22.814Z,9.1
2023-02-19T00:53:26.684Z,8.4
2023-02-19T00:55:30.548Z,9.3
2023-02-19T01:01:42.183Z,8.2
2023-02-19T01:03:48.963Z,10.7
2023-02-19T01:05:52.749Z,8
2023-02-19T01:07:56.810Z,6.4
2023-02-19T01:10:00.672Z,9.3
2023-02-19T01:12:04.512Z,6.6
2023-02-19T01:16:12.324Z,5.1
2023-02-19T01:23:30.024Z,6.8
2023-02-19T01:25:33.887Z,6.1
2023-02-19T01:27:37.768Z,8
2023-02-19T01:29:41.632Z,6.7
2023-02-19T01:33:52.176Z,7.5
2023-02-19T01:35:56.054Z,8
2023-02-19T01:37:59.933Z,6.5
2023-02-19T01:40:03.824Z,8.1
2023-02-19T01:42:07.684Z,7.3
2023-02-19T01:44:11.577Z,7
2023-02-19T01:46:18.237Z,6.6
2023-02-19T01:48:22.076Z,7
2023-02-19T01:50:25.949Z,8.6
2023-02-19T01:52:29.833Z,7.3
2023-02-19T01:54:33.690Z,7.3
2023-02-19T01:56:37.553Z,7.5
2023-02-19T01:58:41.426Z,5.8
2023-02-19T02:00:48.118Z,7.5
2023-02-19T02:02:51.989Z,7.2
2023-02-19T02:04:55.841Z,6.8
2023-02-19T02:06:59.706Z,5.9
2023-02-19T02:09:03.577Z,6.7
2023-02-19T02:11:07.506Z,7.7
2023-02-19T02:13:11.312Z,7.6
2023-02-19T02:15:17.994Z,7.1
2023-02-19T02:17:21.862Z,6.9
2023-02-19T02:19:25.725Z,7.8
2023-02-19T02:21:55.263Z,7.6
2023-02-19T02:23:59.139Z,7
2023-02-19T02:26:02.998Z,6.6
2023-02-19T02:28:09.661Z,5.9
2023-02-19T02:30:13.591Z,6.7
2023-02-19T02:36:25.154Z,8.5
2023-02-19T02:38:29.024Z,9.4
2023-02-19T02:40:32.854Z,9
2023-02-19T02:42:39.552Z,10.2
2023-02-19T02:44:43.434Z,9.3
2023-02-19T02:46:47.279Z,7.2
2023-02-19T02:48:51.150Z,6.9
2023-02-19T02:50:55.013Z,8
2023-02-19T02:52:58.890Z,7.2
2023-02-19T02:55:02.888Z,4.5
2023-02-19T02:59:13.251Z,7.8
2023-02-19T03:05:24.858Z,2.6
2023-02-19T03:09:32.586Z,8.3
2023-02-19T03:13:43.108Z,8.8
2023-02-19T03:23:01.881Z,8.8
2023-02-19T03:25:08.529Z,8.4
2023-02-19T03:27:12.398Z,7.1
2023-02-19T03:29:16.270Z,7.7
2023-02-19T03:33:23.997Z,8
2023-02-19T03:35:27.838Z,6.5
2023-02-19T03:37:31.675Z,8.5
2023-02-19T03:39:38.354Z,8.7
2023-02-19T03:41:42.185Z,7.9
2023-02-19T03:45:49.951Z,6.5
2023-02-19T03:47:53.788Z,9.4
2023-02-19T03:49:57.646Z,9.6
2023-02-19T03:52:01.503Z,8.7
2023-02-19T03:58:15.888Z,9.1
2023-02-19T04:02:23.688Z,6.6
2023-02-19T04:06:31.325Z,7
2023-02-19T04:08:37.998Z,6.6
2023-02-19T04:10:41.858Z,8.1
2023-02-19T04:12:45.713Z,7.6
2023-02-19T04:15:52.898Z,8
2023-02-19T04:30:22.769Z,7.6
2023-02-19T04:36:37.083Z,8.8
2023-02-19T04:38:40.954Z,8.1
2023-02-19T04:40:44.794Z,7.6
2023-02-19T04:44:52.499Z,7.8
2023-02-19T04:46:56.357Z,7
2023-02-19T04:49:00.222Z,3.9
2023-02-19T04:51:06.890Z,8.1
2023-02-19T04:53:10.737Z,8.1
2023-02-19T04:55:14.582Z,6.7
2023-02-19T04:57:18.457Z,6.3
2023-02-19T04:59:22.292Z,7.1
2023-02-19T05:01:26.180Z,6.7
2023-02-19T05:05:36.679Z,5.6
2023-02-19T05:09:44.403Z,5.1
2023-02-19T05:14:55.464Z,5
2023-02-19T05:17:00.788Z,3.1
2023-02-19T05:19:07.438Z,6.1
2023-02-19T05:21:11.641Z,5.4
2023-02-19T05:23:15.146Z,3.9
2023-02-19T05:25:18.993Z,4.6
2023-02-19T05:27:22.845Z,3.4
2023-02-19T05:29:26.703Z,3.3
2023-02-19T05:33:37.263Z,5.3
2023-02-19T05:35:41.081Z,4.5
2023-02-19T05:37:44.941Z,2.2
2023-02-19T05:39:48.800Z,5.5
2023-02-19T05:41:52.644Z,4.5
2023-02-19T05:43:56.497Z,4
2023-02-19T05:46:00.344Z,4.4
2023-02-19T05:48:07.038Z,5.1
2023-02-19T05:50:10.853Z,4.5
2023-02-19T05:52:14.729Z,4.3
2023-02-19T05:54:18.576Z,4.2
2023-02-19T05:56:22.433Z,4.1
2023-02-19T05:58:26.285Z,5.1
2023-02-19T06:00:30.169Z,3.8
2023-02-19T06:02:36.867Z,5.1
2023-02-19T06:04:40.649Z,3.1
2023-02-19T06:06:44.495Z,4.3
2023-02-19T06:09:02.491Z,3.3
2023-02-19T06:11:06.307Z,4.8
2023-02-19T06:13:10.162Z,5.5
2023-02-19T06:15:16.846Z,4.2
2023-02-19T06:17:20.755Z,3.9
2023-02-19T06:19:24.549Z,5.6
2023-02-19T06:23:32.256Z,3.5
2023-02-19T06:29:46.618Z,4.3
2023-02-19T06:48:24.059Z,3.7
2023-02-19T06:50:27.899Z,3.2
2023-02-19T06:52:31.753Z,3.9
2023-02-19T06:54:35.594Z,3.5
2023-02-19T07:00:49.988Z,2.7
2023-02-19T07:02:53.798Z,3.5
2023-02-19T07:03:57.205Z,3.1
2023-02-19T07:06:00.975Z,5.3
2023-02-19T07:08:04.828Z,4.1
2023-02-19T07:10:08.701Z,4
2023-02-19T07:12:15.460Z,3.5
2023-02-19T07:14:19.281Z,4.5
2023-02-19T07:16:23.205Z,3.7
2023-02-19T07:18:26.976Z,5
2023-02-19T07:20:30.824Z,5.2
2023-02-19T07:22:34.682Z,4.6
2023-02-19T07:24:38.531Z,2.9
2023-02-19T07:30:52.905Z,3.4
2023-02-19T07:32:56.721Z,3.2
2023-02-19T07:35:00.586Z,3.6
2023-02-19T07:37:04.426Z,4
2023-02-19T07:39:10.122Z,3.5
2023-02-19T07:45:22.596Z,3.9
2023-02-19T07:47:26.454Z,3.3
2023-02-19T07:51:34.127Z,4.1
2023-02-19T07:53:37.995Z,4.2
2023-02-19T07:55:44.644Z,4.7
2023-02-19T07:57:48.519Z,4.3
2023-02-19T07:59:52.338Z,4.2
2023-02-19T08:00:55.751Z,4.9
2023-02-19T08:02:59.550Z,4.4
2023-02-19T08:05:03.350Z,3.6
2023-02-19T08:07:07.191Z,4.2
2023-02-19T08:09:13.829Z,5.3
2023-02-19T08:13:21.525Z,5
2023-02-19T08:15:25.376Z,5
2023-02-19T08:17:29.252Z,4.2
2023-02-19T08:19:33.063Z,4.7
2023-02-19T08:21:36.924Z,4.4
2023-02-19T08:23:43.541Z,5.4
2023-02-19T08:25:47.373Z,4.1
2023-02-19T08:27:51.296Z,3.6
2023-02-19T08:29:55.094Z,4.6
2023-02-19T08:31:58.990Z,4
2023-02-19T08:34:02.743Z,4.5
2023-02-19T08:36:06.604Z,3.3
2023-02-19T08:38:13.247Z,3.4
2023-02-19T08:40:17.111Z,3.5
2023-02-19T08:42:20.945Z,2.9
2023-02-19T08:44:24.780Z,3.3
2023-02-19T08:46:28.609Z,3.1
2023-02-19T08:48:32.445Z,3.8
2023-02-19T08:50:36.280Z,2.7
2023-02-19T08:52:42.942Z,4
2023-02-19T08:54:47.261Z,2.8
2023-02-19T08:57:54.433Z,3.8
2023-02-19T08:59:58.290Z,2.6
2023-02-19T09:02:02.136Z,2.5
2023-02-19T09:06:12.873Z,3.4
2023-02-19T09:08:16.475Z,2
2023-02-19T09:16:31.872Z,2.3
2023-02-19T09:18:35.735Z,2.4
2023-02-19T09:20:42.356Z,2.2
2023-02-19T09:22:46.218Z,2.5
2023-02-19T09:24:50.055Z,2.3
2023-02-19T09:26:53.889Z,2.5
2023-02-19T09:28:57.736Z,2.6
2023-02-19T09:31:01.605Z,1.9
2023-02-19T09:33:05.424Z,1.9
2023-02-19T09:35:12.075Z,0.9
2023-02-19T09:37:15.914Z,1
2023-02-19T09:41:23.609Z,1.7
2023-02-19T09:43:27.454Z,1.3
2023-02-19T09:45:31.294Z,1.1
2023-02-19T09:49:41.750Z,1.5
2023-02-19T09:51:45.616Z,1.5
2023-02-19T09:58:23.203Z,1.8
2023-02-19T10:02:33.687Z,2.4
2023-02-19T10:04:37.540Z,2.5
2023-02-19T10:06:41.364Z,2.7
2023-02-19T10:10:49.052Z,1.4
2023-02-19T10:17:03.318Z,2.4
2023-02-19T10:19:07.135Z,1.6
2023-02-19T10:21:11.302Z,2
2023-02-19T10:23:14.835Z,1.9
2023-02-19T10:25:18.648Z,2.8
2023-02-19T10:27:22.457Z,2.7
2023-02-19T10:29:26.300Z,2.3
2023-02-19T10:31:33.092Z,2
2023-02-19T10:37:44.416Z,2.4
2023-02-19T10:39:48.223Z,1.4
2023-02-19T10:41:52.076Z,1.1
2023-02-19T10:43:55.879Z,2.3
2023-02-19T10:46:02.512Z,2.4
2023-02-19T10:48:06.328Z,1.6
2023-02-19T10:50:10.169Z,2.3
2023-02-19T10:51:13.725Z,2.7
2023-02-19T10:53:17.289Z,1.9
2023-02-19T10:59:31.974Z,2.5
2023-02-19T11:01:35.820Z,2
2023-02-19T11:05:43.423Z,2.1
2023-02-19T11:07:47.459Z,2.2
2023-02-19T11:11:54.901Z,1.9
2023-02-19T11:14:03.026Z,1.9
2023-02-19T11:16:06.920Z,2.4
2023-02-19T11:20:14.524Z,2.7
2023-02-19T11:24:22.177Z,2.4
2023-02-19T11:28:32.635Z,2.7
2023-02-19T11:30:36.751Z,3.4
2023-02-19T11:36:48.002Z,1.3
2023-02-19T11:38:51.863Z,1.6
2023-02-19T11:43:02.349Z,2.1
2023-02-19T11:47:10.019Z,2
2023-02-19T11:48:13.331Z,1.8
2023-02-19T11:50:17.159Z,2.5
2023-02-19T11:52:20.995Z,2.5
2023-02-19T11:54:24.829Z,2.1
2023-02-19T11:56:31.490Z,2.6
2023-02-19T11:58:35.337Z,2
2023-02-19T12:00:39.174Z,2.2
2023-02-19T12:02:43.001Z,2.3
2023-02-19T12:04:46.906Z,1.5
2023-02-19T12:06:50.688Z,2.5
2023-02-19T12:08:54.523Z,2.2
2023-02-19T12:11:01.178Z,2.3
2023-02-19T12:13:04.993Z,2.5
2023-02-19T12:15:08.825Z,1.7
2023-02-19T12:17:12.639Z,2.3
2023-02-19T12:21:20.324Z,2.1
2023-02-19T12:23:24.158Z,2.4
2023-02-19T12:25:32.826Z,1.9
2023-02-19T12:27:34.650Z,2
2023-02-19T12:29:38.460Z,2.7
2023-02-19T12:31:42.360Z,2.2
2023-02-19T12:33:46.139Z,2.4
2023-02-19T12:42:04.283Z,2.5
2023-02-19T12:45:11.415Z,2.7
2023-02-19T12:47:15.264Z,3
2023-02-19T12:49:19.092Z,3.4
2023-02-19T12:51:22.913Z,2.9
2023-02-19T12:53:29.549Z,2.6
2023-02-19T12:55:33.374Z,2.4
2023-02-19T12:57:37.205Z,2.3
2023-02-19T12:59:41.034Z,2.8
2023-02-19T13:01:44.845Z,2.6
2023-02-19T13:03:48.666Z,2.7
2023-02-19T13:05:52.483Z,2.7
2023-02-19T13:07:59.133Z,2.5
2023-02-19T13:10:02.980Z,3.3
2023-02-19T13:12:06.802Z,2.3
2023-02-19T13:16:17.310Z,2.2
2023-02-19T13:18:18.293Z,2.2
2023-02-19T13:20:22.131Z,2.4
2023-02-19T13:22:28.787Z,2.7
2023-02-19T13:24:32.630Z,1.9
2023-02-19T13:26:36.456Z,1.4
2023-02-19T13:28:40.287Z,1
2023-02-19T13:30:44.226Z,1.2
2023-02-19T13:32:47.973Z,1.6
2023-02-19T13:34:51.805Z,1.7
2023-02-19T13:36:58.438Z,1.4
2023-02-19T13:41:06.086Z,1.3
2023-02-19T13:45:39.466Z,1.6
2023-02-19T13:53:57.629Z,1.5
2023-02-19T14:04:19.640Z,0.7
2023-02-19T14:10:31.147Z,1.4
2023-02-19T14:12:34.996Z,1.4
2023-02-19T14:29:08.515Z,0.8
2023-02-19T14:33:19.789Z,1.2
2023-02-19T14:35:23.633Z,0.7
2023-02-19T14:37:28.027Z,1.8
2023-02-19T14:40:35.212Z,0.7
2023-02-19T14:42:39.056Z,0.6
2023-02-19T14:44:42.868Z,0.9
2023-02-19T14:46:49.541Z,1
2023-02-19T14:48:53.399Z,1
2023-02-19T14:50:57.252Z,1.3
2023-02-19T14:53:01.088Z,0.5
2023-02-19T14:55:04.946Z,0.7
2023-02-19T14:57:08.793Z,0.8
2023-02-19T14:59:12.617Z,1
2023-02-19T15:01:19.396Z,0.9
2023-02-19T15:03:23.134Z,1
2023-02-19T15:05:26.982Z,1.1
2023-02-19T15:07:30.823Z,1.2
2023-02-19T15:09:34.676Z,0.9
2023-02-19T15:11:38.536Z,0.8
2023-02-19T15:13:42.380Z,0.9
2023-02-19T15:15:49.096Z,1.3
2023-02-19T15:17:52.880Z,1.1
2023-02-19T15:19:56.726Z,1
2023-02-19T15:22:00.575Z,1.3
2023-02-19T15:24:04.420Z,1.2
2023-02-19T15:26:08.288Z,1.6
2023-02-19T15:28:12.116Z,1.7
2023-02-19T15:30:18.800Z,1.1
2023-02-19T15:32:22.746Z,1.4
2023-02-19T15:34:26.458Z,1.4
2023-02-19T15:35:29.807Z,1.2
2023-02-19T15:39:37.478Z,2
2023-02-19T15:43:47.963Z,1.3
2023-02-19T15:45:51.830Z,1.6
2023-02-19T15:47:55.660Z,2
2023-02-19T15:49:59.503Z,1.4
2023-02-19T15:58:17.643Z,1.3
2023-02-19T16:00:21.605Z,1.2
2023-02-19T16:02:27.585Z,1.9
2023-02-19T16:04:29.155Z,1.4
2023-02-19T16:06:33.013Z,1.4
2023-02-19T16:08:36.833Z,1
2023-02-19T16:10:40.645Z,0.8
2023-02-19T16:16:54.974Z,1.4
2023-02-19T16:18:58.822Z,1.2
2023-02-19T16:23:06.463Z,1
2023-02-19T16:25:10.325Z,1.2
2023-02-19T16:29:20.779Z,2
2023-02-19T16:31:24.823Z,1.6
2023-02-19T16:32:28.021Z,1.6
2023-02-19T16:34:31.769Z,2.6
2023-02-19T16:38:39.426Z,2.7
2023-02-19T16:40:46.075Z,2
2023-02-19T16:42:49.896Z,2
2023-02-19T16:44:53.733Z,1.8
2023-02-19T16:46:57.577Z,1.8
2023-02-19T16:53:09.044Z,1.7
2023-02-19T16:55:15.701Z,1.8
2023-02-19T16:57:19.510Z,1.8
2023-02-19T16:59:23.298Z,1.9
2023-02-19T17:03:30.952Z,2.9
2023-02-19T17:05:34.777Z,1.7
2023-02-19T17:07:38.620Z,1.3
2023-02-19T17:09:46.749Z,1.6
2023-02-19T17:11:50.545Z,2.3
2023-02-19T17:13:54.353Z,1.7
2023-02-19T17:15:58.187Z,1.3
2023-02-19T17:18:01.988Z,1.9
2023-02-19T17:22:09.635Z,1.1
2023-02-19T17:24:16.276Z,0.6
2023-02-19T17:26:20.064Z,0.9
2023-02-19T17:28:23.932Z,1.2
2023-02-19T17:30:53.548Z,1.3
2023-02-19T17:32:57.734Z,1.2
2023-02-19T17:35:01.566Z,1.6
2023-02-19T17:37:08.205Z,1.5
2023-02-19T17:39:12.037Z,1.5
2023-02-19T17:41:15.865Z,1.8
2023-02-19T17:43:19.666Z,1.3
2023-02-19T17:45:23.518Z,2.1
2023-02-19T17:47:27.337Z,1
2023-02-19T17:49:31.153Z,1.5
2023-02-19T17:51:37.792Z,1.7
2023-02-19T17:53:41.734Z,1.1
2023-02-19T17:55:45.540Z,1.9
2023-02-19T17:57:49.432Z,2.1
2023-02-19T17:59:53.209Z,2.1
2023-02-19T18:22:40.886Z,2.8
2023-02-19T18:24:44.693Z,2.6
2023-02-19T18:25:48.008Z,2.6
2023-02-19T18:27:51.820Z,1.8
2023-02-19T18:29:55.638Z,2.9
2023-02-19T18:31:59.539Z,2.9
2023-02-19T18:34:06.076Z,2.7
2023-02-19T18:36:09.920Z,2.3
2023-02-19T18:38:13.841Z,3
2023-02-19T18:40:17.652Z,3.9
2023-02-19T18:42:21.476Z,3.4
2023-02-19T18:44:25.296Z,3.9
2023-02-19T18:46:30.503Z,3.7
2023-02-19T18:48:35.721Z,3.2
2023-02-19T18:50:39.534Z,2.6
2023-02-19T18:52:43.387Z,3.2
2023-02-19T18:56:51.022Z,3.4
2023-02-19T19:00:58.613Z,3.5
2023-02-19T19:03:05.261Z,3.7
2023-02-19T19:05:09.070Z,3.1
2023-02-19T19:07:12.876Z,3.9
2023-02-19T19:09:16.692Z,3.5
2023-02-19T19:11:20.513Z,3.3
2023-02-19T19:13:24.308Z,3.1
2023-02-19T19:15:28.172Z,3.6
2023-02-19T19:19:38.557Z,3.1
2023-02-19T19:22:45.656Z,4.9
2023-02-19T19:24:49.460Z,4
2023-02-19T19:26:53.275Z,4.1
2023-02-19T19:28:57.107Z,3.8
2023-02-19T19:31:03.732Z,4
2023-02-19T19:33:07.515Z,3.4
2023-02-19T19:35:11.302Z,3.7
2023-02-19T19:37:15.097Z,3.8
2023-02-19T19:39:18.890Z,3.3
2023-02-19T19:41:22.708Z,2.9
2023-02-19T19:43:26.521Z,4.2
2023-02-19T19:45:33.142Z,3
2023-02-19T19:47:36.880Z,3.9
2023-02-19T19:49:40.682Z,2.8
2023-02-19T19:51:44.461Z,4.2
2023-02-19T19:53:48.254Z,3.8
2023-02-19T19:55:52.017Z,2.9
2023-02-19T20:00:02.445Z,2.7
2023-02-19T20:08:17.636Z,4.1
2023-02-19T20:10:21.402Z,3.9
2023-02-19T20:12:25.226Z,4
2023-02-19T20:14:31.786Z,4
2023-02-19T20:18:39.349Z,3.4
2023-02-19T20:19:42.645Z,3.9
2023-02-19T20:23:50.188Z,3.9
2023-02-19T20:25:53.962Z,4.4
2023-02-19T20:28:00.536Z,4.5
2023-02-19T20:32:08.125Z,4
2023-02-19T20:34:11.876Z,3.4
2023-02-19T20:36:15.632Z,3.5
2023-02-19T20:38:19.402Z,3.1
2023-02-19T20:42:29.749Z,4.4
2023-02-19T20:44:33.482Z,4.3
2023-02-19T20:46:37.293Z,3.2
2023-02-19T20:48:41.029Z,2.5
2023-02-19T20:50:44.759Z,3.1
2023-02-19T20:52:48.548Z,4.1
2023-02-19T20:54:52.393Z,3.8
2023-02-19T21:01:06.441Z,3.3
2023-02-19T21:03:10.207Z,4.3
2023-02-19T21:07:17.800Z,4.2
2023-02-19T21:09:21.542Z,3.5
2023-02-19T21:11:28.138Z,4
2023-02-19T21:13:31.975Z,4
2023-02-19T21:15:35.813Z,3.8
2023-02-19T21:20:09.124Z,4
2023-02-19T21:24:19.511Z,4.4
2023-02-19T21:30:30.907Z,5.1
2023-02-19T21:34:38.363Z,4.9
2023-02-19T21:36:42.133Z,5.5
2023-02-19T21:38:48.892Z,6.4
2023-02-19T21:40:52.618Z,5.9
2023-02-19T21:42:57.317Z,5.9
2023-02-19T21:45:01.059Z,7
2023-02-19T21:47:04.801Z,7.1
2023-02-19T21:49:08.551Z,6.2
2023-02-19T21:55:22.587Z,7.4
2023-02-19T21:59:30.100Z,7.7
2023-02-19T22:01:33.868Z,8.5
2023-02-19T22:03:37.567Z,7.9
2023-02-19T22:05:41.342Z,7.7
2023-02-19T22:07:47.968Z,8.7
2023-02-19T22:09:51.800Z,8
2023-02-19T22:11:55.475Z,6.6
2023-02-19T22:12:58.773Z,7.6
2023-02-19T22:19:09.998Z,7.7
2023-02-19T22:23:20.292Z,7.7
2023-02-19T22:27:27.758Z,8.9
2023-02-19T22:29:31.479Z,8.5
2023-02-19T22:31:35.593Z,7
2023-02-19T22:33:38.949Z,7.5
2023-02-19T22:37:49.218Z,8.5
2023-02-19T22:44:00.426Z,9
2023-02-19T22:46:04.191Z,10.6
2023-02-19T22:48:07.898Z,8.5
2023-02-19T22:52:18.190Z,10.6
2023-02-19T22:54:21.939Z,6.5
2023-02-19T22:58:29.388Z,6.3
2023-02-19T23:00:33.172Z,9.1
2023-02-19T23:02:36.872Z,7.5
2023-02-19T23:06:48.692Z,9.6
2023-02-19T23:08:52.401Z,6.7
2023-02-19T23:09:55.673Z,10.1
2023-02-19T23:11:59.431Z,8.4
2023-02-19T23:18:13.479Z,7.4
2023-02-19T23:20:17.274Z,4.9
2023-02-19T23:22:20.989Z,5.7
2023-02-19T23:24:24.753Z,6.8
2023-02-19T23:26:28.505Z,7.2
2023-02-19T23:28:32.248Z,6.6
2023-02-19T23:30:36.168Z,6.8
2023-02-19T23:32:42.585Z,7.6
2023-02-19T23:34:46.353Z,6.3
2023-02-19T23:38:53.956Z,6.8
2023-02-19T23:40:57.711Z,5.5
2023-02-19T23:45:05.257Z,6.9
2023-02-19T23:47:11.812Z,6.1
2023-02-19T23:51:19.317Z,5.9
2023-02-19T23:53:23.083Z,6
2023-02-19T23:55:26.859Z,5.3
2023-02-19T23:57:30.589Z,5.6
2023-02-19T23:59:34.351Z,5.7
